sensor_id;sensor_type;location;lat;lon;timestamp;temperature;humidity
12119;DHT22;6123;48.864;9.200;2022-10-17T00:02:03;14.80;99.90
12119;DHT22;6123;48.864;9.200;2022-10-17T00:04:29;14.80;99.90
12119;DHT22;6123;48.864;9.200;2022-10-17T00:06:54;14.70;99.90
12119;DHT22;6123;48.864;9.200;2022-10-17T00:09:20;14.80;99.90
12119;DHT22;6123;48.864;9.200;2022-10-17T00:11:46;14.80;99.90
12119;DHT22;6123;48.864;9.200;2022-10-17T00:14:14;14.90;99.90
12119;DHT22;6123;48.864;9.200;2022-10-17T00:16:39;14.80;99.90
12119;DHT22;6123;48.864;9.200;2022-10-17T00:19:06;14.90;99.90
12119;DHT22;6123;48.864;9.200;2022-10-17T00:21:34;14.90;99.90
12119;DHT22;6123;48.864;9.200;2022-10-17T00:24:00;14.70;99.90
12119;DHT22;6123;48.864;9.200;2022-10-17T00:26:26;14.70;99.90
12119;DHT22;6123;48.864;9.200;2022-10-17T00:28:55;14.70;99.90
12119;DHT22;6123;48.864;9.200;2022-10-17T00:31:23;14.70;99.90
12119;DHT22;6123;48.864;9.200;2022-10-17T00:33:50;14.40;99.90
12119;DHT22;6123;48.864;9.200;2022-10-17T00:36:26;14.40;99.90
12119;DHT22;6123;48.864;9.200;2022-10-17T00:38:56;14.40;99.90
12119;DHT22;6123;48.864;9.200;2022-10-17T00:41:27;14.50;99.90
12119;DHT22;6123;48.864;9.200;2022-10-17T00:44:06;14.40;99.90
12119;DHT22;6123;48.864;9.200;2022-10-17T00:46:37;14.40;99.90
12119;DHT22;6123;48.864;9.200;2022-10-17T00:49:10;14.40;99.90
12119;DHT22;6123;48.864;9.200;2022-10-17T00:51:41;14.50;99.90
12119;DHT22;6123;48.864;9.200;2022-10-17T00:54:11;14.60;99.90
12119;DHT22;6123;48.864;9.200;2022-10-17T00:56:38;14.60;99.90
12119;DHT22;6123;48.864;9.200;2022-10-17T00:59:06;14.60;99.90
12119;DHT22;6123;48.864;9.200;2022-10-17T01:01:33;14.60;99.90
12119;DHT22;6123;48.864;9.200;2022-10-17T01:03:59;14.50;99.90
12119;DHT22;6123;48.864;9.200;2022-10-17T01:06:25;14.50;99.90
12119;DHT22;6123;48.864;9.200;2022-10-17T01:08:53;14.60;99.90
12119;DHT22;6123;48.864;9.200;2022-10-17T01:14:30;14.60;99.90
12119;DHT22;6123;48.864;9.200;2022-10-17T01:33:46;14.10;99.90
12119;DHT22;6123;48.864;9.200;2022-10-17T01:41:37;14.00;99.90
12119;DHT22;6123;48.864;9.200;2022-10-17T01:44:09;14.00;99.90
12119;DHT22;6123;48.864;9.200;2022-10-17T01:46:39;14.00;99.90
12119;DHT22;6123;48.864;9.200;2022-10-17T01:49:07;13.90;99.90
12119;DHT22;6123;48.864;9.200;2022-10-17T01:51:57;13.90;99.90
12119;DHT22;6123;48.864;9.200;2022-10-17T01:54:42;13.80;99.90
12119;DHT22;6123;48.864;9.200;2022-10-17T01:57:26;13.80;99.90
12119;DHT22;6123;48.864;9.200;2022-10-17T01:59:54;13.90;99.90
12119;DHT22;6123;48.864;9.200;2022-10-17T02:02:22;13.90;99.90
12119;DHT22;6123;48.864;9.200;2022-10-17T02:04:48;13.80;99.90
12119;DHT22;6123;48.864;9.200;2022-10-17T02:07:18;13.80;99.90
12119;DHT22;6123;48.864;9.200;2022-10-17T02:09:45;13.70;99.90
12119;DHT22;6123;48.864;9.200;2022-10-17T02:15:18;13.70;99.90
12119;DHT22;6123;48.864;9.200;2022-10-17T02:23:27;13.60;99.90
12119;DHT22;6123;48.864;9.200;2022-10-17T02:26:16;13.60;99.90
12119;DHT22;6123;48.864;9.200;2022-10-17T02:31:38;13.80;99.90
12119;DHT22;6123;48.864;9.200;2022-10-17T02:34:08;13.70;99.90
12119;DHT22;6123;48.864;9.200;2022-10-17T02:36:46;13.60;99.90
12119;DHT22;6123;48.864;9.200;2022-10-17T02:39:12;13.70;99.90
12119;DHT22;6123;48.864;9.200;2022-10-17T02:41:40;13.60;99.90
12119;DHT22;6123;48.864;9.200;2022-10-17T02:44:07;13.30;99.90
12119;DHT22;6123;48.864;9.200;2022-10-17T02:46:34;13.10;99.90
12119;DHT22;6123;48.864;9.200;2022-10-17T02:49:10;13.10;99.90
12119;DHT22;6123;48.864;9.200;2022-10-17T02:54:40;13.10;99.90
12119;DHT22;6123;48.864;9.200;2022-10-17T02:57:18;13.30;99.90
12119;DHT22;6123;48.864;9.200;2022-10-17T02:59:49;13.30;99.90
12119;DHT22;6123;48.864;9.200;2022-10-17T03:02:15;13.30;99.90
12119;DHT22;6123;48.864;9.200;2022-10-17T03:04:45;13.30;99.90
12119;DHT22;6123;48.864;9.200;2022-10-17T03:07:11;13.30;99.90
12119;DHT22;6123;48.864;9.200;2022-10-17T03:09:36;13.60;99.90
12119;DHT22;6123;48.864;9.200;2022-10-17T03:12:02;13.40;99.90
12119;DHT22;6123;48.864;9.200;2022-10-17T03:14:28;13.30;99.90
12119;DHT22;6123;48.864;9.200;2022-10-17T03:16:54;13.20;99.90
12119;DHT22;6123;48.864;9.200;2022-10-17T03:19:19;13.10;99.90
12119;DHT22;6123;48.864;9.200;2022-10-17T03:21:45;13.10;99.90
12119;DHT22;6123;48.864;9.200;2022-10-17T03:24:11;13.00;99.90
12119;DHT22;6123;48.864;9.200;2022-10-17T03:26:38;12.90;99.90
12119;DHT22;6123;48.864;9.200;2022-10-17T03:29:04;12.80;99.90
12119;DHT22;6123;48.864;9.200;2022-10-17T03:31:29;12.70;99.90
12119;DHT22;6123;48.864;9.200;2022-10-17T03:33:55;12.70;99.90
12119;DHT22;6123;48.864;9.200;2022-10-17T03:36:21;12.80;99.90
12119;DHT22;6123;48.864;9.200;2022-10-17T03:38:47;13.00;99.90
12119;DHT22;6123;48.864;9.200;2022-10-17T03:41:12;13.20;99.90
12119;DHT22;6123;48.864;9.200;2022-10-17T03:43:39;13.20;99.90
12119;DHT22;6123;48.864;9.200;2022-10-17T03:46:05;13.20;99.90
12119;DHT22;6123;48.864;9.200;2022-10-17T03:48:31;13.10;99.90
12119;DHT22;6123;48.864;9.200;2022-10-17T03:51:03;13.00;99.90
12119;DHT22;6123;48.864;9.200;2022-10-17T03:53:29;13.20;99.90
12119;DHT22;6123;48.864;9.200;2022-10-17T03:55:55;13.30;99.90
12119;DHT22;6123;48.864;9.200;2022-10-17T03:58:20;13.20;99.90
12119;DHT22;6123;48.864;9.200;2022-10-17T04:00:46;13.10;99.90
12119;DHT22;6123;48.864;9.200;2022-10-17T04:03:12;13.20;99.90
12119;DHT22;6123;48.864;9.200;2022-10-17T04:05:38;13.20;99.90
12119;DHT22;6123;48.864;9.200;2022-10-17T04:08:03;13.30;99.90
12119;DHT22;6123;48.864;9.200;2022-10-17T04:10:29;13.20;99.90
12119;DHT22;6123;48.864;9.200;2022-10-17T04:12:55;13.30;99.90
12119;DHT22;6123;48.864;9.200;2022-10-17T04:15:21;13.30;99.90
12119;DHT22;6123;48.864;9.200;2022-10-17T04:17:48;13.10;99.90
12119;DHT22;6123;48.864;9.200;2022-10-17T04:20:14;13.20;99.90
12119;DHT22;6123;48.864;9.200;2022-10-17T04:22:40;13.00;99.90
12119;DHT22;6123;48.864;9.200;2022-10-17T04:25:08;13.10;99.90
12119;DHT22;6123;48.864;9.200;2022-10-17T04:27:33;13.20;99.90
12119;DHT22;6123;48.864;9.200;2022-10-17T04:29:59;13.20;99.90
12119;DHT22;6123;48.864;9.200;2022-10-17T04:32:29;13.10;99.90
12119;DHT22;6123;48.864;9.200;2022-10-17T04:34:54;13.20;99.90
12119;DHT22;6123;48.864;9.200;2022-10-17T04:37:20;13.20;99.90
12119;DHT22;6123;48.864;9.200;2022-10-17T04:39:46;13.40;99.90
12119;DHT22;6123;48.864;9.200;2022-10-17T04:42:11;13.50;99.90
12119;DHT22;6123;48.864;9.200;2022-10-17T04:44:37;13.40;99.90
12119;DHT22;6123;48.864;9.200;2022-10-17T04:47:05;13.50;99.90
12119;DHT22;6123;48.864;9.200;2022-10-17T04:49:34;13.50;99.90
12119;DHT22;6123;48.864;9.200;2022-10-17T04:52:00;13.40;99.90
12119;DHT22;6123;48.864;9.200;2022-10-17T04:54:25;13.30;99.90
12119;DHT22;6123;48.864;9.200;2022-10-17T04:56:53;13.20;99.90
12119;DHT22;6123;48.864;9.200;2022-10-17T04:59:19;13.20;99.90
12119;DHT22;6123;48.864;9.200;2022-10-17T05:01:44;13.10;99.90
12119;DHT22;6123;48.864;9.200;2022-10-17T05:04:12;12.90;99.90
12119;DHT22;6123;48.864;9.200;2022-10-17T05:06:38;13.30;99.90
12119;DHT22;6123;48.864;9.200;2022-10-17T05:09:04;13.20;99.90
12119;DHT22;6123;48.864;9.200;2022-10-17T05:11:31;13.30;99.90
12119;DHT22;6123;48.864;9.200;2022-10-17T05:14:00;13.20;99.90
12119;DHT22;6123;48.864;9.200;2022-10-17T05:16:28;13.20;99.90
12119;DHT22;6123;48.864;9.200;2022-10-17T05:19:00;13.10;99.90
12119;DHT22;6123;48.864;9.200;2022-10-17T05:21:27;13.20;99.90
12119;DHT22;6123;48.864;9.200;2022-10-17T05:23:56;13.20;99.90
12119;DHT22;6123;48.864;9.200;2022-10-17T05:26:22;13.20;99.90
12119;DHT22;6123;48.864;9.200;2022-10-17T05:28:48;13.10;99.90
12119;DHT22;6123;48.864;9.200;2022-10-17T05:31:14;13.20;99.90
12119;DHT22;6123;48.864;9.200;2022-10-17T05:33:40;13.20;99.90
12119;DHT22;6123;48.864;9.200;2022-10-17T05:36:06;13.30;99.90
12119;DHT22;6123;48.864;9.200;2022-10-17T05:38:32;13.30;99.90
12119;DHT22;6123;48.864;9.200;2022-10-17T05:40:59;13.30;99.90
12119;DHT22;6123;48.864;9.200;2022-10-17T05:43:28;13.20;99.90
12119;DHT22;6123;48.864;9.200;2022-10-17T05:45:54;13.30;99.90
12119;DHT22;6123;48.864;9.200;2022-10-17T05:48:23;13.30;99.90
12119;DHT22;6123;48.864;9.200;2022-10-17T05:50:48;13.30;99.90
12119;DHT22;6123;48.864;9.200;2022-10-17T05:53:15;13.10;99.90
12119;DHT22;6123;48.864;9.200;2022-10-17T05:55:41;13.10;99.90
12119;DHT22;6123;48.864;9.200;2022-10-17T05:58:08;13.10;99.90
12119;DHT22;6123;48.864;9.200;2022-10-17T06:00:34;13.00;99.90
12119;DHT22;6123;48.864;9.200;2022-10-17T06:03:02;13.00;99.90
12119;DHT22;6123;48.864;9.200;2022-10-17T06:05:28;13.00;99.90
12119;DHT22;6123;48.864;9.200;2022-10-17T06:07:53;13.00;99.90
12119;DHT22;6123;48.864;9.200;2022-10-17T06:10:19;13.20;99.90
12119;DHT22;6123;48.864;9.200;2022-10-17T06:12:45;13.10;99.90
12119;DHT22;6123;48.864;9.200;2022-10-17T06:15:11;13.00;99.90
12119;DHT22;6123;48.864;9.200;2022-10-17T06:17:37;13.00;99.90
12119;DHT22;6123;48.864;9.200;2022-10-17T06:20:03;12.80;99.90
12119;DHT22;6123;48.864;9.200;2022-10-17T06:22:29;12.80;99.90
12119;DHT22;6123;48.864;9.200;2022-10-17T06:24:55;12.80;99.90
12119;DHT22;6123;48.864;9.200;2022-10-17T06:27:20;12.80;99.90
12119;DHT22;6123;48.864;9.200;2022-10-17T06:29:47;12.80;99.90
12119;DHT22;6123;48.864;9.200;2022-10-17T06:32:15;12.80;99.90
12119;DHT22;6123;48.864;9.200;2022-10-17T06:34:41;13.00;99.90
12119;DHT22;6123;48.864;9.200;2022-10-17T06:37:06;13.20;99.90
12119;DHT22;6123;48.864;9.200;2022-10-17T06:39:34;13.20;99.90
12119;DHT22;6123;48.864;9.200;2022-10-17T06:42:00;13.30;99.90
12119;DHT22;6123;48.864;9.200;2022-10-17T06:44:28;13.40;99.90
12119;DHT22;6123;48.864;9.200;2022-10-17T06:46:57;13.30;99.90
12119;DHT22;6123;48.864;9.200;2022-10-17T06:49:25;13.20;99.90
12119;DHT22;6123;48.864;9.200;2022-10-17T06:51:51;13.20;99.90
12119;DHT22;6123;48.864;9.200;2022-10-17T06:54:17;13.30;99.90
12119;DHT22;6123;48.864;9.200;2022-10-17T06:56:44;13.50;99.90
12119;DHT22;6123;48.864;9.200;2022-10-17T06:59:12;13.80;99.90
12119;DHT22;6123;48.864;9.200;2022-10-17T07:01:39;13.80;99.90
12119;DHT22;6123;48.864;9.200;2022-10-17T07:04:05;13.80;99.90
12119;DHT22;6123;48.864;9.200;2022-10-17T07:06:33;13.80;99.90
12119;DHT22;6123;48.864;9.200;2022-10-17T07:08:59;14.00;99.90
12119;DHT22;6123;48.864;9.200;2022-10-17T07:11:27;14.10;99.90
12119;DHT22;6123;48.864;9.200;2022-10-17T07:13:53;14.30;99.90
12119;DHT22;6123;48.864;9.200;2022-10-17T07:16:21;14.30;99.90
12119;DHT22;6123;48.864;9.200;2022-10-17T07:18:50;14.50;99.90
12119;DHT22;6123;48.864;9.200;2022-10-17T07:21:17;14.50;99.90
12119;DHT22;6123;48.864;9.200;2022-10-17T07:23:45;14.40;99.90
12119;DHT22;6123;48.864;9.200;2022-10-17T07:26:15;14.50;99.90
12119;DHT22;6123;48.864;9.200;2022-10-17T07:28:42;14.60;99.90
12119;DHT22;6123;48.864;9.200;2022-10-17T07:31:13;14.80;99.90
12119;DHT22;6123;48.864;9.200;2022-10-17T07:33:42;14.90;99.90
12119;DHT22;6123;48.864;9.200;2022-10-17T07:36:08;14.90;99.90
12119;DHT22;6123;48.864;9.200;2022-10-17T07:38:37;15.10;99.90
12119;DHT22;6123;48.864;9.200;2022-10-17T07:41:05;15.20;99.90
12119;DHT22;6123;48.864;9.200;2022-10-17T07:43:31;15.10;99.90
12119;DHT22;6123;48.864;9.200;2022-10-17T07:45:57;15.20;99.90
12119;DHT22;6123;48.864;9.200;2022-10-17T07:48:23;15.60;99.90
12119;DHT22;6123;48.864;9.200;2022-10-17T07:50:49;15.70;99.90
12119;DHT22;6123;48.864;9.200;2022-10-17T07:53:15;15.80;99.90
12119;DHT22;6123;48.864;9.200;2022-10-17T07:55:41;16.00;99.90
12119;DHT22;6123;48.864;9.200;2022-10-17T07:58:08;15.90;99.90
12119;DHT22;6123;48.864;9.200;2022-10-17T08:00:35;16.00;99.90
12119;DHT22;6123;48.864;9.200;2022-10-17T08:03:01;16.10;99.90
12119;DHT22;6123;48.864;9.200;2022-10-17T08:05:28;16.10;99.90
12119;DHT22;6123;48.864;9.200;2022-10-17T08:07:54;16.20;99.90
12119;DHT22;6123;48.864;9.200;2022-10-17T08:10:19;16.30;99.90
12119;DHT22;6123;48.864;9.200;2022-10-17T08:12:50;16.50;99.90
12119;DHT22;6123;48.864;9.200;2022-10-17T08:15:16;16.70;99.90
12119;DHT22;6123;48.864;9.200;2022-10-17T08:17:44;16.80;99.90
12119;DHT22;6123;48.864;9.200;2022-10-17T08:20:12;16.80;99.90
12119;DHT22;6123;48.864;9.200;2022-10-17T08:22:38;17.00;99.90
12119;DHT22;6123;48.864;9.200;2022-10-17T08:25:03;18.30;99.90
12119;DHT22;6123;48.864;9.200;2022-10-17T08:27:31;17.30;99.90
12119;DHT22;6123;48.864;9.200;2022-10-17T08:29:56;17.40;99.90
12119;DHT22;6123;48.864;9.200;2022-10-17T08:32:26;17.40;99.90
12119;DHT22;6123;48.864;9.200;2022-10-17T08:34:55;17.40;99.90
12119;DHT22;6123;48.864;9.200;2022-10-17T08:37:22;17.40;99.90
12119;DHT22;6123;48.864;9.200;2022-10-17T08:39:48;17.60;99.90
12119;DHT22;6123;48.864;9.200;2022-10-17T08:48:04;18.00;99.90
12119;DHT22;6123;48.864;9.200;2022-10-17T08:50:43;18.10;99.90
12119;DHT22;6123;48.864;9.200;2022-10-17T08:56:23;18.30;99.90
12119;DHT22;6123;48.864;9.200;2022-10-17T08:58:49;18.30;99.90
12119;DHT22;6123;48.864;9.200;2022-10-17T09:04:00;18.60;99.90
12119;DHT22;6123;48.864;9.200;2022-10-17T09:06:35;18.60;99.90
12119;DHT22;6123;48.864;9.200;2022-10-17T09:15:51;18.80;99.90
12119;DHT22;6123;48.864;9.200;2022-10-17T09:18:23;18.90;99.90
12119;DHT22;6123;48.864;9.200;2022-10-17T09:23:50;19.00;99.90
12119;DHT22;6123;48.864;9.200;2022-10-17T09:26:16;19.10;99.90
12119;DHT22;6123;48.864;9.200;2022-10-17T09:28:42;19.20;99.90
12119;DHT22;6123;48.864;9.200;2022-10-17T09:33:41;19.40;99.90
12119;DHT22;6123;48.864;9.200;2022-10-17T09:36:18;19.50;99.90
12119;DHT22;6123;48.864;9.200;2022-10-17T09:38:47;19.60;99.90
12119;DHT22;6123;48.864;9.200;2022-10-17T09:43:58;19.80;99.90
12119;DHT22;6123;48.864;9.200;2022-10-17T09:46:35;20.00;99.90
12119;DHT22;6123;48.864;9.200;2022-10-17T09:49:05;20.00;99.90
12119;DHT22;6123;48.864;9.200;2022-10-17T09:51:37;20.20;99.90
12119;DHT22;6123;48.864;9.200;2022-10-17T09:54:16;20.40;99.90
12119;DHT22;6123;48.864;9.200;2022-10-17T09:57:20;20.50;99.90
12119;DHT22;6123;48.864;9.200;2022-10-17T10:02:17;20.60;99.90
12119;DHT22;6123;48.864;9.200;2022-10-17T10:05:03;20.60;99.90
12119;DHT22;6123;48.864;9.200;2022-10-17T10:07:34;20.80;99.90
12119;DHT22;6123;48.864;9.200;2022-10-17T10:10:21;21.00;99.90
12119;DHT22;6123;48.864;9.200;2022-10-17T10:13:05;21.10;99.90
12119;DHT22;6123;48.864;9.200;2022-10-17T10:17:57;21.10;99.90
12119;DHT22;6123;48.864;9.200;2022-10-17T10:20:36;21.30;99.90
12119;DHT22;6123;48.864;9.200;2022-10-17T10:23:12;21.30;99.90
12119;DHT22;6123;48.864;9.200;2022-10-17T10:25:51;21.20;99.90
12119;DHT22;6123;48.864;9.200;2022-10-17T10:28:19;21.30;99.90
12119;DHT22;6123;48.864;9.200;2022-10-17T10:30:48;21.40;99.90
12119;DHT22;6123;48.864;9.200;2022-10-17T10:33:14;21.60;99.90
12119;DHT22;6123;48.864;9.200;2022-10-17T10:35:40;21.70;99.90
12119;DHT22;6123;48.864;9.200;2022-10-17T10:38:13;21.70;99.90
12119;DHT22;6123;48.864;9.200;2022-10-17T10:40:50;21.90;99.90
12119;DHT22;6123;48.864;9.200;2022-10-17T10:46:19;22.50;99.90
12119;DHT22;6123;48.864;9.200;2022-10-17T10:48:57;22.60;99.90
12119;DHT22;6123;48.864;9.200;2022-10-17T10:54:24;22.80;99.90
12119;DHT22;6123;48.864;9.200;2022-10-17T10:56:57;23.20;99.90
12119;DHT22;6123;48.864;9.200;2022-10-17T11:00:11;23.50;99.90
12119;DHT22;6123;48.864;9.200;2022-10-17T11:02:29;23.60;99.90
12119;DHT22;6123;48.864;9.200;2022-10-17T11:05:10;23.70;99.90
12119;DHT22;6123;48.864;9.200;2022-10-17T11:14:11;24.50;99.90
12119;DHT22;6123;48.864;9.200;2022-10-17T11:16:21;24.70;99.90
12119;DHT22;6123;48.864;9.200;2022-10-17T11:21:58;24.70;99.90
12119;DHT22;6123;48.864;9.200;2022-10-17T11:27:38;24.80;99.90
12119;DHT22;6123;48.864;9.200;2022-10-17T11:30:05;24.90;99.90
12119;DHT22;6123;48.864;9.200;2022-10-17T11:35:23;25.40;99.90
12119;DHT22;6123;48.864;9.200;2022-10-17T11:40:43;25.70;99.90
12119;DHT22;6123;48.864;9.200;2022-10-17T11:45:45;25.90;99.90
12119;DHT22;6123;48.864;9.200;2022-10-17T11:48:31;26.00;99.90
12119;DHT22;6123;48.864;9.200;2022-10-17T11:51:10;26.00;99.90
12119;DHT22;6123;48.864;9.200;2022-10-17T11:56:52;26.10;99.90
12119;DHT22;6123;48.864;9.200;2022-10-17T12:02:13;26.40;99.90
12119;DHT22;6123;48.864;9.200;2022-10-17T12:12:30;26.60;99.90
12119;DHT22;6123;48.864;9.200;2022-10-17T12:18:02;26.50;99.90
12119;DHT22;6123;48.864;9.200;2022-10-17T12:20:36;26.80;99.90
12119;DHT22;6123;48.864;9.200;2022-10-17T12:25:57;25.00;99.90
12119;DHT22;6123;48.864;9.200;2022-10-17T12:31:02;26.00;99.90
12119;DHT22;6123;48.864;9.200;2022-10-17T12:33:36;25.70;99.90
12119;DHT22;6123;48.864;9.200;2022-10-17T12:38:47;25.80;99.90
12119;DHT22;6123;48.864;9.200;2022-10-17T12:41:13;25.40;99.90
12119;DHT22;6123;48.864;9.200;2022-10-17T12:46:09;25.90;99.90
12119;DHT22;6123;48.864;9.200;2022-10-17T12:56:19;26.00;99.90
12119;DHT22;6123;48.864;9.200;2022-10-17T12:58:47;25.90;99.90
12119;DHT22;6123;48.864;9.200;2022-10-17T13:01:27;25.70;99.90
12119;DHT22;6123;48.864;9.200;2022-10-17T13:03:54;26.20;99.90
12119;DHT22;6123;48.864;9.200;2022-10-17T13:06:24;26.30;99.90
12119;DHT22;6123;48.864;9.200;2022-10-17T13:08:57;26.10;99.90
12119;DHT22;6123;48.864;9.200;2022-10-17T13:11:28;26.00;99.90
12119;DHT22;6123;48.864;9.200;2022-10-17T13:13:58;26.20;99.90
12119;DHT22;6123;48.864;9.200;2022-10-17T13:16:29;24.90;99.90
12119;DHT22;6123;48.864;9.200;2022-10-17T13:18:59;24.40;99.90
12119;DHT22;6123;48.864;9.200;2022-10-17T13:21:27;24.50;99.90
12119;DHT22;6123;48.864;9.200;2022-10-17T13:23:53;24.80;99.90
12119;DHT22;6123;48.864;9.200;2022-10-17T13:26:23;24.60;99.90
12119;DHT22;6123;48.864;9.200;2022-10-17T13:29:11;24.50;99.90
12119;DHT22;6123;48.864;9.200;2022-10-17T13:31:39;23.70;99.90
12119;DHT22;6123;48.864;9.200;2022-10-17T13:34:15;24.60;99.90
12119;DHT22;6123;48.864;9.200;2022-10-17T13:36:42;25.10;99.90
12119;DHT22;6123;48.864;9.200;2022-10-17T13:39:13;24.60;99.90
12119;DHT22;6123;48.864;9.200;2022-10-17T13:41:39;24.60;99.90
12119;DHT22;6123;48.864;9.200;2022-10-17T13:44:17;24.80;99.90
12119;DHT22;6123;48.864;9.200;2022-10-17T13:46:46;24.70;99.90
12119;DHT22;6123;48.864;9.200;2022-10-17T13:52:01;24.80;99.90
12119;DHT22;6123;48.864;9.200;2022-10-17T13:54:42;24.70;99.90
12119;DHT22;6123;48.864;9.200;2022-10-17T13:59:51;25.10;99.90
12119;DHT22;6123;48.864;9.200;2022-10-17T14:02:26;24.90;99.90
12119;DHT22;6123;48.864;9.200;2022-10-17T14:05:19;25.00;99.90
12119;DHT22;6123;48.864;9.200;2022-10-17T14:07:54;24.90;99.90
12119;DHT22;6123;48.864;9.200;2022-10-17T14:10:26;24.50;99.90
12119;DHT22;6123;48.864;9.200;2022-10-17T14:12:52;24.30;99.90
12119;DHT22;6123;48.864;9.200;2022-10-17T14:15:27;24.20;99.90
12119;DHT22;6123;48.864;9.200;2022-10-17T14:17:58;24.50;99.90
12119;DHT22;6123;48.864;9.200;2022-10-17T14:20:24;24.30;99.90
12119;DHT22;6123;48.864;9.200;2022-10-17T14:22:52;24.60;99.90
12119;DHT22;6123;48.864;9.200;2022-10-17T14:25:39;24.70;99.90
12119;DHT22;6123;48.864;9.200;2022-10-17T14:33:34;24.40;99.90
12119;DHT22;6123;48.864;9.200;2022-10-17T14:36:02;24.60;99.90
12119;DHT22;6123;48.864;9.200;2022-10-17T14:38:29;24.60;99.90
12119;DHT22;6123;48.864;9.200;2022-10-17T14:41:21;24.70;99.90
12119;DHT22;6123;48.864;9.200;2022-10-17T14:43:55;24.80;99.90
12119;DHT22;6123;48.864;9.200;2022-10-17T14:46:22;24.90;99.90
12119;DHT22;6123;48.864;9.200;2022-10-17T14:48:56;25.00;99.90
12119;DHT22;6123;48.864;9.200;2022-10-17T14:51:23;24.80;99.90
12119;DHT22;6123;48.864;9.200;2022-10-17T14:56:42;25.30;99.90
12119;DHT22;6123;48.864;9.200;2022-10-17T14:59:13;25.40;99.90
12119;DHT22;6123;48.864;9.200;2022-10-17T15:01:41;25.60;99.90
12119;DHT22;6123;48.864;9.200;2022-10-17T15:04:07;25.70;99.90
12119;DHT22;6123;48.864;9.200;2022-10-17T15:06:35;26.40;99.90
12119;DHT22;6123;48.864;9.200;2022-10-17T15:09:01;27.20;99.90
12119;DHT22;6123;48.864;9.200;2022-10-17T15:11:27;27.20;99.90
12119;DHT22;6123;48.864;9.200;2022-10-17T15:13:53;27.30;99.90
12119;DHT22;6123;48.864;9.200;2022-10-17T15:16:21;26.80;99.90
12119;DHT22;6123;48.864;9.200;2022-10-17T15:18:47;26.30;99.90
12119;DHT22;6123;48.864;9.200;2022-10-17T15:21:15;27.20;99.90
12119;DHT22;6123;48.864;9.200;2022-10-17T15:23:41;27.30;99.90
12119;DHT22;6123;48.864;9.200;2022-10-17T15:26:22;28.00;99.90
12119;DHT22;6123;48.864;9.200;2022-10-17T15:28:49;28.70;99.90
12119;DHT22;6123;48.864;9.200;2022-10-17T15:31:17;28.70;99.90
12119;DHT22;6123;48.864;9.200;2022-10-17T15:33:44;28.70;99.90
12119;DHT22;6123;48.864;9.200;2022-10-17T15:38:54;28.40;99.90
12119;DHT22;6123;48.864;9.200;2022-10-17T15:41:23;28.30;99.90
12119;DHT22;6123;48.864;9.200;2022-10-17T15:43:49;26.50;99.90
12119;DHT22;6123;48.864;9.200;2022-10-17T15:46:27;25.70;99.90
12119;DHT22;6123;48.864;9.200;2022-10-17T15:48:56;25.10;99.90
12119;DHT22;6123;48.864;9.200;2022-10-17T15:51:25;25.00;99.90
12119;DHT22;6123;48.864;9.200;2022-10-17T15:53:51;25.00;99.90
12119;DHT22;6123;48.864;9.200;2022-10-17T15:56:25;24.70;99.90
12119;DHT22;6123;48.864;9.200;2022-10-17T15:58:52;24.80;99.90
12119;DHT22;6123;48.864;9.200;2022-10-17T16:01:24;24.80;99.90
12119;DHT22;6123;48.864;9.200;2022-10-17T16:03:50;24.90;99.90
12119;DHT22;6123;48.864;9.200;2022-10-17T16:06:17;24.60;99.90
12119;DHT22;6123;48.864;9.200;2022-10-17T16:08:44;24.40;99.90
12119;DHT22;6123;48.864;9.200;2022-10-17T16:11:33;24.20;99.90
12119;DHT22;6123;48.864;9.200;2022-10-17T16:14:01;24.00;99.90
12119;DHT22;6123;48.864;9.200;2022-10-17T16:16:29;23.90;99.90
12119;DHT22;6123;48.864;9.200;2022-10-17T16:18:55;23.30;99.90
12119;DHT22;6123;48.864;9.200;2022-10-17T16:21:27;23.40;99.90
12119;DHT22;6123;48.864;9.200;2022-10-17T16:23:54;23.40;99.90
12119;DHT22;6123;48.864;9.200;2022-10-17T16:26:22;23.10;99.90
12119;DHT22;6123;48.864;9.200;2022-10-17T16:28:48;22.90;99.90
12119;DHT22;6123;48.864;9.200;2022-10-17T16:31:29;22.90;99.90
12119;DHT22;6123;48.864;9.200;2022-10-17T16:33:56;22.90;99.90
12119;DHT22;6123;48.864;9.200;2022-10-17T16:36:25;22.90;99.90
12119;DHT22;6123;48.864;9.200;2022-10-17T16:38:51;22.90;99.90
12119;DHT22;6123;48.864;9.200;2022-10-17T16:41:36;22.80;99.90
12119;DHT22;6123;48.864;9.200;2022-10-17T16:44:05;22.80;99.90
12119;DHT22;6123;48.864;9.200;2022-10-17T16:46:32;22.60;99.90
12119;DHT22;6123;48.864;9.200;2022-10-17T16:48:58;22.60;99.90
12119;DHT22;6123;48.864;9.200;2022-10-17T16:51:26;22.40;99.90
12119;DHT22;6123;48.864;9.200;2022-10-17T16:53:54;22.30;99.90
12119;DHT22;6123;48.864;9.200;2022-10-17T16:56:22;22.00;99.90
12119;DHT22;6123;48.864;9.200;2022-10-17T16:58:49;21.40;99.90
12119;DHT22;6123;48.864;9.200;2022-10-17T17:01:19;21.40;99.90
12119;DHT22;6123;48.864;9.200;2022-10-17T17:03:46;21.30;99.90
12119;DHT22;6123;48.864;9.200;2022-10-17T17:06:19;21.20;99.90
12119;DHT22;6123;48.864;9.200;2022-10-17T17:08:48;21.20;99.90
12119;DHT22;6123;48.864;9.200;2022-10-17T17:11:17;21.20;99.90
12119;DHT22;6123;48.864;9.200;2022-10-17T17:13:46;21.10;99.90
12119;DHT22;6123;48.864;9.200;2022-10-17T17:16:15;21.00;99.90
12119;DHT22;6123;48.864;9.200;2022-10-17T17:18:41;20.90;99.90
12119;DHT22;6123;48.864;9.200;2022-10-17T17:21:08;20.70;99.90
12119;DHT22;6123;48.864;9.200;2022-10-17T17:23:37;20.50;99.90
12119;DHT22;6123;48.864;9.200;2022-10-17T17:26:08;20.50;99.90
12119;DHT22;6123;48.864;9.200;2022-10-17T17:28:35;20.40;99.90
12119;DHT22;6123;48.864;9.200;2022-10-17T17:31:01;20.50;99.90
12119;DHT22;6123;48.864;9.200;2022-10-17T17:33:30;20.50;99.90
12119;DHT22;6123;48.864;9.200;2022-10-17T17:36:01;20.50;99.90
12119;DHT22;6123;48.864;9.200;2022-10-17T17:38:31;20.50;99.90
12119;DHT22;6123;48.864;9.200;2022-10-17T17:40:57;20.40;99.90
12119;DHT22;6123;48.864;9.200;2022-10-17T17:43:23;20.20;99.90
12119;DHT22;6123;48.864;9.200;2022-10-17T17:45:51;20.10;99.90
12119;DHT22;6123;48.864;9.200;2022-10-17T17:48:17;20.20;99.90
12119;DHT22;6123;48.864;9.200;2022-10-17T17:50:46;20.10;99.90
12119;DHT22;6123;48.864;9.200;2022-10-17T17:53:13;20.10;99.90
12119;DHT22;6123;48.864;9.200;2022-10-17T17:55:39;19.50;99.90
12119;DHT22;6123;48.864;9.200;2022-10-17T17:58:07;19.30;99.90
12119;DHT22;6123;48.864;9.200;2022-10-17T18:00:34;19.40;99.90
12119;DHT22;6123;48.864;9.200;2022-10-17T18:03:00;19.50;99.90
12119;DHT22;6123;48.864;9.200;2022-10-17T18:05:26;19.60;99.90
12119;DHT22;6123;48.864;9.200;2022-10-17T18:07:52;19.60;99.90
12119;DHT22;6123;48.864;9.200;2022-10-17T18:10:18;19.60;99.90
12119;DHT22;6123;48.864;9.200;2022-10-17T18:12:46;19.60;99.90
12119;DHT22;6123;48.864;9.200;2022-10-17T18:15:12;19.70;99.90
12119;DHT22;6123;48.864;9.200;2022-10-17T18:17:38;19.70;99.90
12119;DHT22;6123;48.864;9.200;2022-10-17T18:20:05;19.70;99.90
12119;DHT22;6123;48.864;9.200;2022-10-17T18:22:33;19.10;99.90
12119;DHT22;6123;48.864;9.200;2022-10-17T18:25:00;19.10;99.90
12119;DHT22;6123;48.864;9.200;2022-10-17T18:27:26;19.00;99.90